sensor_id;sensor_type;location;lat;lon;timestamp;temperature;humidity
44513;DHT22;30219;50.588;9.504;2023-02-22T00:01:51;3.20;99.90
44513;DHT22;30219;50.588;9.504;2023-02-22T00:04:37;3.20;99.90
44513;DHT22;30219;50.588;9.504;2023-02-22T00:07:06;3.20;99.90
44513;DHT22;30219;50.588;9.504;2023-02-22T00:09:31;3.20;99.90
44513;DHT22;30219;50.588;9.504;2023-02-22T00:11:57;3.20;99.90
44513;DHT22;30219;50.588;9.504;2023-02-22T00:14:23;3.20;99.90
44513;DHT22;30219;50.588;9.504;2023-02-22T00:16:51;3.20;99.90
44513;DHT22;30219;50.588;9.504;2023-02-22T00:19:17;3.20;99.90
44513;DHT22;30219;50.588;9.504;2023-02-22T00:21:43;3.10;99.90
44513;DHT22;30219;50.588;9.504;2023-02-22T00:24:09;3.20;99.90
44513;DHT22;30219;50.588;9.504;2023-02-22T00:26:51;3.20;99.90
44513;DHT22;30219;50.588;9.504;2023-02-22T00:29:16;3.20;99.90
44513;DHT22;30219;50.588;9.504;2023-02-22T00:31:42;3.10;99.90
44513;DHT22;30219;50.588;9.504;2023-02-22T00:34:07;3.10;99.90
44513;DHT22;30219;50.588;9.504;2023-02-22T00:36:33;3.10;99.90
44513;DHT22;30219;50.588;9.504;2023-02-22T00:38:58;3.20;99.90
44513;DHT22;30219;50.588;9.504;2023-02-22T00:41:24;3.20;99.90
44513;DHT22;30219;50.588;9.504;2023-02-22T00:43:49;3.20;99.90
44513;DHT22;30219;50.588;9.504;2023-02-22T00:46:15;3.00;99.90
44513;DHT22;30219;50.588;9.504;2023-02-22T00:48:40;2.90;99.90
44513;DHT22;30219;50.588;9.504;2023-02-22T00:51:06;2.80;99.90
44513;DHT22;30219;50.588;9.504;2023-02-22T00:53:31;2.80;99.90
44513;DHT22;30219;50.588;9.504;2023-02-22T00:55:56;2.60;99.90
44513;DHT22;30219;50.588;9.504;2023-02-22T00:58:22;2.50;99.90
44513;DHT22;30219;50.588;9.504;2023-02-22T01:00:48;2.40;99.90
44513;DHT22;30219;50.588;9.504;2023-02-22T01:03:15;2.40;99.90
44513;DHT22;30219;50.588;9.504;2023-02-22T01:05:41;2.30;99.90
44513;DHT22;30219;50.588;9.504;2023-02-22T01:08:07;2.20;99.90
44513;DHT22;30219;50.588;9.504;2023-02-22T01:10:33;2.30;99.90
44513;DHT22;30219;50.588;9.504;2023-02-22T01:12:59;2.40;99.90
44513;DHT22;30219;50.588;9.504;2023-02-22T01:15:25;2.40;99.90
44513;DHT22;30219;50.588;9.504;2023-02-22T01:17:53;2.40;99.90
44513;DHT22;30219;50.588;9.504;2023-02-22T01:20:20;2.40;99.90
44513;DHT22;30219;50.588;9.504;2023-02-22T01:22:47;2.50;99.90
44513;DHT22;30219;50.588;9.504;2023-02-22T01:25:15;2.50;99.90
44513;DHT22;30219;50.588;9.504;2023-02-22T01:27:41;2.50;99.90
44513;DHT22;30219;50.588;9.504;2023-02-22T01:30:06;2.50;99.90
44513;DHT22;30219;50.588;9.504;2023-02-22T01:32:35;2.50;99.90
44513;DHT22;30219;50.588;9.504;2023-02-22T01:35:02;2.50;99.90
44513;DHT22;30219;50.588;9.504;2023-02-22T01:37:29;2.50;99.90
44513;DHT22;30219;50.588;9.504;2023-02-22T01:39:55;2.50;99.90
44513;DHT22;30219;50.588;9.504;2023-02-22T01:42:20;2.60;99.90
44513;DHT22;30219;50.588;9.504;2023-02-22T01:45:19;2.60;99.90
44513;DHT22;30219;50.588;9.504;2023-02-22T01:47:31;2.50;99.90
44513;DHT22;30219;50.588;9.504;2023-02-22T01:49:56;2.40;99.90
44513;DHT22;30219;50.588;9.504;2023-02-22T01:52:22;2.30;99.90
44513;DHT22;30219;50.588;9.504;2023-02-22T01:54:48;2.20;99.90
44513;DHT22;30219;50.588;9.504;2023-02-22T01:57:25;2.10;99.90
44513;DHT22;30219;50.588;9.504;2023-02-22T02:00:02;2.00;99.90
44513;DHT22;30219;50.588;9.504;2023-02-22T02:02:34;2.00;99.90
44513;DHT22;30219;50.588;9.504;2023-02-22T02:05:00;2.10;99.90
44513;DHT22;30219;50.588;9.504;2023-02-22T02:07:25;2.20;99.90
44513;DHT22;30219;50.588;9.504;2023-02-22T02:09:57;2.30;99.90
44513;DHT22;30219;50.588;9.504;2023-02-22T02:12:23;2.30;99.90
44513;DHT22;30219;50.588;9.504;2023-02-22T02:14:50;2.40;99.90
44513;DHT22;30219;50.588;9.504;2023-02-22T02:17:16;2.40;99.90
44513;DHT22;30219;50.588;9.504;2023-02-22T02:20:00;2.40;99.90
44513;DHT22;30219;50.588;9.504;2023-02-22T02:22:40;2.40;99.90
44513;DHT22;30219;50.588;9.504;2023-02-22T02:33:03;2.50;99.90
44513;DHT22;30219;50.588;9.504;2023-02-22T02:35:37;2.60;99.90
44513;DHT22;30219;50.588;9.504;2023-02-22T02:38:06;2.60;99.90
44513;DHT22;30219;50.588;9.504;2023-02-22T02:40:40;2.60;99.90
44513;DHT22;30219;50.588;9.504;2023-02-22T02:43:16;2.70;99.90
44513;DHT22;30219;50.588;9.504;2023-02-22T02:48:11;2.60;99.90
44513;DHT22;30219;50.588;9.504;2023-02-22T02:50:40;2.70;99.90
44513;DHT22;30219;50.588;9.504;2023-02-22T02:53:07;2.70;99.90
44513;DHT22;30219;50.588;9.504;2023-02-22T02:55:34;2.70;99.90
44513;DHT22;30219;50.588;9.504;2023-02-22T02:58:02;2.70;99.90
44513;DHT22;30219;50.588;9.504;2023-02-22T03:00:30;2.70;99.90
44513;DHT22;30219;50.588;9.504;2023-02-22T03:10:53;2.70;99.90
44513;DHT22;30219;50.588;9.504;2023-02-22T03:18:48;2.70;99.90
44513;DHT22;30219;50.588;9.504;2023-02-22T03:23:44;2.70;99.90
44513;DHT22;30219;50.588;9.504;2023-02-22T03:26:13;2.60;99.90
44513;DHT22;30219;50.588;9.504;2023-02-22T03:28:39;2.60;99.90
44513;DHT22;30219;50.588;9.504;2023-02-22T03:31:16;2.60;99.90
44513;DHT22;30219;50.588;9.504;2023-02-22T03:33:43;2.60;99.90
44513;DHT22;30219;50.588;9.504;2023-02-22T03:36:12;2.60;99.90
44513;DHT22;30219;50.588;9.504;2023-02-22T03:38:39;2.60;99.90
44513;DHT22;30219;50.588;9.504;2023-02-22T03:41:05;2.60;99.90
44513;DHT22;30219;50.588;9.504;2023-02-22T03:43:34;2.60;99.90
44513;DHT22;30219;50.588;9.504;2023-02-22T03:46:00;2.60;99.90
44513;DHT22;30219;50.588;9.504;2023-02-22T03:50:53;2.60;99.90
44513;DHT22;30219;50.588;9.504;2023-02-22T03:53:18;2.60;99.90
44513;DHT22;30219;50.588;9.504;2023-02-22T03:55:45;2.50;99.90
44513;DHT22;30219;50.588;9.504;2023-02-22T03:58:15;2.50;99.90
44513;DHT22;30219;50.588;9.504;2023-02-22T04:00:43;2.50;99.90
44513;DHT22;30219;50.588;9.504;2023-02-22T04:03:08;2.50;99.90
44513;DHT22;30219;50.588;9.504;2023-02-22T04:05:34;2.50;99.90
44513;DHT22;30219;50.588;9.504;2023-02-22T04:07:59;2.50;99.90
44513;DHT22;30219;50.588;9.504;2023-02-22T04:10:25;2.50;99.90
44513;DHT22;30219;50.588;9.504;2023-02-22T04:12:50;2.50;99.90
44513;DHT22;30219;50.588;9.504;2023-02-22T04:15:18;2.60;99.90
44513;DHT22;30219;50.588;9.504;2023-02-22T04:17:44;2.50;99.90
44513;DHT22;30219;50.588;9.504;2023-02-22T04:20:09;2.60;99.90
44513;DHT22;30219;50.588;9.504;2023-02-22T04:22:38;2.50;99.90
44513;DHT22;30219;50.588;9.504;2023-02-22T04:25:03;2.40;99.90
44513;DHT22;30219;50.588;9.504;2023-02-22T04:27:29;2.40;99.90
44513;DHT22;30219;50.588;9.504;2023-02-22T04:29:54;2.40;99.90
44513;DHT22;30219;50.588;9.504;2023-02-22T04:32:20;2.40;99.90
44513;DHT22;30219;50.588;9.504;2023-02-22T04:34:45;2.30;99.90
44513;DHT22;30219;50.588;9.504;2023-02-22T04:37:11;2.20;99.90
44513;DHT22;30219;50.588;9.504;2023-02-22T04:39:37;2.20;99.90
44513;DHT22;30219;50.588;9.504;2023-02-22T04:42:02;2.20;99.90
44513;DHT22;30219;50.588;9.504;2023-02-22T04:44:29;2.20;99.90
44513;DHT22;30219;50.588;9.504;2023-02-22T04:46:54;2.30;99.90
44513;DHT22;30219;50.588;9.504;2023-02-22T04:49:20;2.30;99.90
44513;DHT22;30219;50.588;9.504;2023-02-22T04:51:46;2.30;99.90
44513;DHT22;30219;50.588;9.504;2023-02-22T04:54:11;2.30;99.90
44513;DHT22;30219;50.588;9.504;2023-02-22T04:56:37;2.30;99.90
44513;DHT22;30219;50.588;9.504;2023-02-22T04:59:03;2.30;99.90
44513;DHT22;30219;50.588;9.504;2023-02-22T05:01:32;2.30;99.90
44513;DHT22;30219;50.588;9.504;2023-02-22T05:03:58;2.30;99.90
44513;DHT22;30219;50.588;9.504;2023-02-22T05:06:24;2.30;99.90
44513;DHT22;30219;50.588;9.504;2023-02-22T05:08:49;2.30;99.90
44513;DHT22;30219;50.588;9.504;2023-02-22T05:11:15;2.30;99.90
44513;DHT22;30219;50.588;9.504;2023-02-22T05:13:40;2.30;99.90
44513;DHT22;30219;50.588;9.504;2023-02-22T05:16:06;2.30;99.90
44513;DHT22;30219;50.588;9.504;2023-02-22T05:18:32;2.40;99.90
44513;DHT22;30219;50.588;9.504;2023-02-22T05:20:57;2.30;99.90
44513;DHT22;30219;50.588;9.504;2023-02-22T05:23:22;2.30;99.90
44513;DHT22;30219;50.588;9.504;2023-02-22T05:25:48;2.30;99.90
44513;DHT22;30219;50.588;9.504;2023-02-22T05:28:14;2.30;99.90
44513;DHT22;30219;50.588;9.504;2023-02-22T05:30:40;2.20;99.90
44513;DHT22;30219;50.588;9.504;2023-02-22T05:33:06;2.10;99.90
44513;DHT22;30219;50.588;9.504;2023-02-22T05:35:31;2.10;99.90
44513;DHT22;30219;50.588;9.504;2023-02-22T05:37:57;2.10;99.90
44513;DHT22;30219;50.588;9.504;2023-02-22T05:40:24;2.10;99.90
44513;DHT22;30219;50.588;9.504;2023-02-22T05:42:50;2.10;99.90
44513;DHT22;30219;50.588;9.504;2023-02-22T05:45:17;2.10;99.90
44513;DHT22;30219;50.588;9.504;2023-02-22T05:47:42;2.10;99.90
44513;DHT22;30219;50.588;9.504;2023-02-22T05:50:08;2.00;99.90
44513;DHT22;30219;50.588;9.504;2023-02-22T05:52:34;1.90;99.90
44513;DHT22;30219;50.588;9.504;2023-02-22T05:54:59;1.80;99.90
44513;DHT22;30219;50.588;9.504;2023-02-22T05:57:25;1.80;99.90
44513;DHT22;30219;50.588;9.504;2023-02-22T05:59:50;1.70;99.90
44513;DHT22;30219;50.588;9.504;2023-02-22T06:02:16;1.70;99.90
44513;DHT22;30219;50.588;9.504;2023-02-22T06:04:45;1.70;99.90
44513;DHT22;30219;50.588;9.504;2023-02-22T06:07:11;1.70;99.90
44513;DHT22;30219;50.588;9.504;2023-02-22T06:09:36;1.70;99.90
44513;DHT22;30219;50.588;9.504;2023-02-22T06:12:02;1.80;99.90
44513;DHT22;30219;50.588;9.504;2023-02-22T06:14:28;1.80;99.90
44513;DHT22;30219;50.588;9.504;2023-02-22T06:16:54;1.80;99.90
44513;DHT22;30219;50.588;9.504;2023-02-22T06:19:19;1.90;99.90
44513;DHT22;30219;50.588;9.504;2023-02-22T06:21:49;2.00;99.90
44513;DHT22;30219;50.588;9.504;2023-02-22T06:24:14;2.00;99.90
44513;DHT22;30219;50.588;9.504;2023-02-22T06:26:41;2.10;99.90
44513;DHT22;30219;50.588;9.504;2023-02-22T06:29:06;2.10;99.90
44513;DHT22;30219;50.588;9.504;2023-02-22T06:31:32;2.10;99.90
44513;DHT22;30219;50.588;9.504;2023-02-22T06:33:58;2.10;99.90
44513;DHT22;30219;50.588;9.504;2023-02-22T06:36:23;2.10;99.90
44513;DHT22;30219;50.588;9.504;2023-02-22T06:38:49;2.10;99.90
44513;DHT22;30219;50.588;9.504;2023-02-22T06:41:14;2.20;99.90
44513;DHT22;30219;50.588;9.504;2023-02-22T06:43:40;2.30;99.90
44513;DHT22;30219;50.588;9.504;2023-02-22T06:46:08;2.30;99.90
44513;DHT22;30219;50.588;9.504;2023-02-22T06:48:35;2.40;99.90
44513;DHT22;30219;50.588;9.504;2023-02-22T06:51:02;2.40;99.90
44513;DHT22;30219;50.588;9.504;2023-02-22T06:53:28;2.50;99.90
44513;DHT22;30219;50.588;9.504;2023-02-22T06:55:53;2.50;99.90
44513;DHT22;30219;50.588;9.504;2023-02-22T06:58:19;2.60;99.90
44513;DHT22;30219;50.588;9.504;2023-02-22T07:00:45;2.60;99.90
44513;DHT22;30219;50.588;9.504;2023-02-22T07:03:10;2.60;99.90
44513;DHT22;30219;50.588;9.504;2023-02-22T07:05:35;2.60;99.90
44513;DHT22;30219;50.588;9.504;2023-02-22T07:08:02;2.60;99.90
44513;DHT22;30219;50.588;9.504;2023-02-22T07:10:29;2.70;99.90
44513;DHT22;30219;50.588;9.504;2023-02-22T07:12:55;2.70;99.90
44513;DHT22;30219;50.588;9.504;2023-02-22T07:15:21;2.80;99.90
44513;DHT22;30219;50.588;9.504;2023-02-22T07:17:48;2.80;99.90
44513;DHT22;30219;50.588;9.504;2023-02-22T07:20:13;2.80;99.90
44513;DHT22;30219;50.588;9.504;2023-02-22T07:22:39;2.80;99.90
44513;DHT22;30219;50.588;9.504;2023-02-22T07:25:05;2.90;99.90
44513;DHT22;30219;50.588;9.504;2023-02-22T07:27:31;2.90;99.90
44513;DHT22;30219;50.588;9.504;2023-02-22T07:29:56;3.00;99.90
44513;DHT22;30219;50.588;9.504;2023-02-22T07:32:22;3.00;99.90
44513;DHT22;30219;50.588;9.504;2023-02-22T07:34:47;3.00;99.90
44513;DHT22;30219;50.588;9.504;2023-02-22T07:37:13;3.00;99.90
44513;DHT22;30219;50.588;9.504;2023-02-22T07:39:38;3.00;99.90
44513;DHT22;30219;50.588;9.504;2023-02-22T07:42:06;3.00;99.90
44513;DHT22;30219;50.588;9.504;2023-02-22T07:44:31;3.00;99.90
44513;DHT22;30219;50.588;9.504;2023-02-22T07:46:57;3.10;99.90
44513;DHT22;30219;50.588;9.504;2023-02-22T07:49:22;3.20;99.90
44513;DHT22;30219;50.588;9.504;2023-02-22T07:51:48;3.20;99.90
44513;DHT22;30219;50.588;9.504;2023-02-22T07:54:13;3.20;99.90
44513;DHT22;30219;50.588;9.504;2023-02-22T07:56:47;3.20;99.90
44513;DHT22;30219;50.588;9.504;2023-02-22T07:59:14;3.30;99.90
44513;DHT22;30219;50.588;9.504;2023-02-22T08:01:39;3.30;99.90
44513;DHT22;30219;50.588;9.504;2023-02-22T08:04:05;3.40;99.90
44513;DHT22;30219;50.588;9.504;2023-02-22T08:06:31;3.40;99.90
44513;DHT22;30219;50.588;9.504;2023-02-22T08:08:56;3.40;99.90
44513;DHT22;30219;50.588;9.504;2023-02-22T08:11:22;3.50;99.90
44513;DHT22;30219;50.588;9.504;2023-02-22T08:13:48;3.50;99.90
44513;DHT22;30219;50.588;9.504;2023-02-22T08:16:13;3.50;99.90
44513;DHT22;30219;50.588;9.504;2023-02-22T08:18:39;3.60;99.90
44513;DHT22;30219;50.588;9.504;2023-02-22T08:21:05;3.60;99.90
44513;DHT22;30219;50.588;9.504;2023-02-22T08:23:30;3.60;99.90
44513;DHT22;30219;50.588;9.504;2023-02-22T08:26:02;3.70;99.90
44513;DHT22;30219;50.588;9.504;2023-02-22T08:28:28;3.70;99.90
44513;DHT22;30219;50.588;9.504;2023-02-22T08:30:53;3.80;99.90
44513;DHT22;30219;50.588;9.504;2023-02-22T08:33:20;3.80;99.90
44513;DHT22;30219;50.588;9.504;2023-02-22T08:35:46;3.70;99.90
44513;DHT22;30219;50.588;9.504;2023-02-22T08:38:18;3.80;99.90
44513;DHT22;30219;50.588;9.504;2023-02-22T08:40:44;3.90;99.90
44513;DHT22;30219;50.588;9.504;2023-02-22T08:43:11;4.10;99.90
44513;DHT22;30219;50.588;9.504;2023-02-22T08:45:38;4.10;99.90
44513;DHT22;30219;50.588;9.504;2023-02-22T08:48:03;4.10;99.90
44513;DHT22;30219;50.588;9.504;2023-02-22T08:50:30;4.10;99.90
44513;DHT22;30219;50.588;9.504;2023-02-22T08:52:58;4.10;99.90
44513;DHT22;30219;50.588;9.504;2023-02-22T08:55:25;3.90;99.90
44513;DHT22;30219;50.588;9.504;2023-02-22T08:57:51;3.70;99.90
44513;DHT22;30219;50.588;9.504;2023-02-22T09:00:17;3.50;99.90
44513;DHT22;30219;50.588;9.504;2023-02-22T09:02:43;3.50;99.90
44513;DHT22;30219;50.588;9.504;2023-02-22T09:05:08;3.60;99.90
44513;DHT22;30219;50.588;9.504;2023-02-22T09:07:34;3.70;99.90
44513;DHT22;30219;50.588;9.504;2023-02-22T09:10:00;3.80;99.90
44513;DHT22;30219;50.588;9.504;2023-02-22T09:12:25;3.70;99.90
44513;DHT22;30219;50.588;9.504;2023-02-22T09:14:51;3.70;99.90
44513;DHT22;30219;50.588;9.504;2023-02-22T09:17:16;3.80;99.90
44513;DHT22;30219;50.588;9.504;2023-02-22T09:19:42;3.90;99.90
44513;DHT22;30219;50.588;9.504;2023-02-22T09:22:08;3.90;99.90
44513;DHT22;30219;50.588;9.504;2023-02-22T09:24:33;4.00;99.90
44513;DHT22;30219;50.588;9.504;2023-02-22T09:27:00;4.00;99.90
44513;DHT22;30219;50.588;9.504;2023-02-22T09:29:28;4.20;99.90
44513;DHT22;30219;50.588;9.504;2023-02-22T09:31:54;4.30;99.90
44513;DHT22;30219;50.588;9.504;2023-02-22T09:34:21;4.30;99.90
44513;DHT22;30219;50.588;9.504;2023-02-22T09:36:47;4.40;99.90
44513;DHT22;30219;50.588;9.504;2023-02-22T09:39:14;4.40;99.90
44513;DHT22;30219;50.588;9.504;2023-02-22T09:46:50;4.50;99.90
44513;DHT22;30219;50.588;9.504;2023-02-22T09:51:57;4.50;99.90
44513;DHT22;30219;50.588;9.504;2023-02-22T09:54:29;4.60;99.90
44513;DHT22;30219;50.588;9.504;2023-02-22T09:56:59;4.60;99.90
44513;DHT22;30219;50.588;9.504;2023-02-22T09:59:26;4.70;99.90
44513;DHT22;30219;50.588;9.504;2023-02-22T10:01:54;4.90;99.90
44513;DHT22;30219;50.588;9.504;2023-02-22T10:04:23;5.10;99.90
44513;DHT22;30219;50.588;9.504;2023-02-22T10:09:20;5.20;99.90
44513;DHT22;30219;50.588;9.504;2023-02-22T10:11:48;5.40;99.90
44513;DHT22;30219;50.588;9.504;2023-02-22T10:22:20;5.80;99.90
44513;DHT22;30219;50.588;9.504;2023-02-22T10:24:58;5.90;99.90
44513;DHT22;30219;50.588;9.504;2023-02-22T10:27:36;5.90;99.90
44513;DHT22;30219;50.588;9.504;2023-02-22T10:30:06;5.70;99.90
44513;DHT22;30219;50.588;9.504;2023-02-22T10:32:40;5.70;99.90
44513;DHT22;30219;50.588;9.504;2023-02-22T10:35:21;5.80;99.90
44513;DHT22;30219;50.588;9.504;2023-02-22T10:37:49;5.90;99.90
44513;DHT22;30219;50.588;9.504;2023-02-22T10:40:18;6.20;99.90
44513;DHT22;30219;50.588;9.504;2023-02-22T10:42:47;6.00;99.90
44513;DHT22;30219;50.588;9.504;2023-02-22T10:45:18;5.80;99.90
44513;DHT22;30219;50.588;9.504;2023-02-22T10:47:44;5.70;99.90
44513;DHT22;30219;50.588;9.504;2023-02-22T10:50:11;5.90;99.90
44513;DHT22;30219;50.588;9.504;2023-02-22T10:52:37;6.00;99.90
44513;DHT22;30219;50.588;9.504;2023-02-22T10:55:02;6.20;99.90
44513;DHT22;30219;50.588;9.504;2023-02-22T10:57:31;6.30;99.90
44513;DHT22;30219;50.588;9.504;2023-02-22T11:00:11;6.40;99.90
44513;DHT22;30219;50.588;9.504;2023-02-22T11:02:38;6.60;99.90
44513;DHT22;30219;50.588;9.504;2023-02-22T11:05:24;6.60;99.90
44513;DHT22;30219;50.588;9.504;2023-02-22T11:07:50;6.70;99.90
44513;DHT22;30219;50.588;9.504;2023-02-22T11:10:19;6.90;99.90
44513;DHT22;30219;50.588;9.504;2023-02-22T11:12:55;7.00;99.90
44513;DHT22;30219;50.588;9.504;2023-02-22T11:17:50;7.20;99.90
44513;DHT22;30219;50.588;9.504;2023-02-22T11:20:19;7.20;99.90
44513;DHT22;30219;50.588;9.504;2023-02-22T11:22:56;7.30;99.90
44513;DHT22;30219;50.588;9.504;2023-02-22T11:25:26;7.40;99.90
44513;DHT22;30219;50.588;9.504;2023-02-22T11:27:52;7.60;99.90
44513;DHT22;30219;50.588;9.504;2023-02-22T11:30:25;7.80;99.90
44513;DHT22;30219;50.588;9.504;2023-02-22T11:35:29;8.00;99.90
44513;DHT22;30219;50.588;9.504;2023-02-22T11:40:35;8.50;99.90
44513;DHT22;30219;50.588;9.504;2023-02-22T11:43:05;8.70;99.90
44513;DHT22;30219;50.588;9.504;2023-02-22T11:45:32;8.80;99.90
44513;DHT22;30219;50.588;9.504;2023-02-22T11:48:00;9.00;99.90
44513;DHT22;30219;50.588;9.504;2023-02-22T11:50:33;9.20;99.90
44513;DHT22;30219;50.588;9.504;2023-02-22T11:55:43;9.30;99.90
44513;DHT22;30219;50.588;9.504;2023-02-22T12:01:07;9.40;99.90
44513;DHT22;30219;50.588;9.504;2023-02-22T12:03:43;9.40;99.90
44513;DHT22;30219;50.588;9.504;2023-02-22T12:16:41;10.20;99.90
44513;DHT22;30219;50.588;9.504;2023-02-22T12:19:13;10.20;99.90
44513;DHT22;30219;50.588;9.504;2023-02-22T12:21:41;10.40;99.90
44513;DHT22;30219;50.588;9.504;2023-02-22T12:24:12;10.40;99.90
44513;DHT22;30219;50.588;9.504;2023-02-22T12:26:41;10.40;99.90
44513;DHT22;30219;50.588;9.504;2023-02-22T12:29:12;10.40;99.90
44513;DHT22;30219;50.588;9.504;2023-02-22T12:31:45;10.40;99.90
44513;DHT22;30219;50.588;9.504;2023-02-22T12:36:47;10.60;99.90
44513;DHT22;30219;50.588;9.504;2023-02-22T12:41:53;11.60;99.90
44513;DHT22;30219;50.588;9.504;2023-02-22T12:44:21;12.00;99.90
44513;DHT22;30219;50.588;9.504;2023-02-22T12:46:49;12.50;99.90
44513;DHT22;30219;50.588;9.504;2023-02-22T12:51:57;13.20;99.90
44513;DHT22;30219;50.588;9.504;2023-02-22T12:57:52;14.20;99.90
44513;DHT22;30219;50.588;9.504;2023-02-22T12:59:56;14.60;99.90
44513;DHT22;30219;50.588;9.504;2023-02-22T13:02:27;14.80;99.90
44513;DHT22;30219;50.588;9.504;2023-02-22T13:04:54;15.10;99.90
44513;DHT22;30219;50.588;9.504;2023-02-22T13:07:40;15.20;99.90
44513;DHT22;30219;50.588;9.504;2023-02-22T13:13:22;15.20;99.90
44513;DHT22;30219;50.588;9.504;2023-02-22T13:20:33;14.50;99.90
44513;DHT22;30219;50.588;9.504;2023-02-22T13:23:05;14.50;99.90
44513;DHT22;30219;50.588;9.504;2023-02-22T13:25:40;14.50;99.90
44513;DHT22;30219;50.588;9.504;2023-02-22T13:28:19;14.50;99.90
44513;DHT22;30219;50.588;9.504;2023-02-22T13:33:33;14.50;99.90
44513;DHT22;30219;50.588;9.504;2023-02-22T13:38:39;14.60;99.90
44513;DHT22;30219;50.588;9.504;2023-02-22T13:41:13;14.70;99.90
44513;DHT22;30219;50.588;9.504;2023-02-22T13:44:05;14.70;99.90
44513;DHT22;30219;50.588;9.504;2023-02-22T13:46:37;14.60;99.90
44513;DHT22;30219;50.588;9.504;2023-02-22T13:51:52;14.60;99.90
44513;DHT22;30219;50.588;9.504;2023-02-22T13:54:26;14.30;99.90
44513;DHT22;30219;50.588;9.504;2023-02-22T13:56:54;14.20;99.90
44513;DHT22;30219;50.588;9.504;2023-02-22T14:01:49;14.20;99.90
44513;DHT22;30219;50.588;9.504;2023-02-22T14:04:21;14.20;99.90
44513;DHT22;30219;50.588;9.504;2023-02-22T14:06:47;14.20;99.90
44513;DHT22;30219;50.588;9.504;2023-02-22T14:09:37;14.10;99.90
44513;DHT22;30219;50.588;9.504;2023-02-22T14:12:02;14.10;99.90
44513;DHT22;30219;50.588;9.504;2023-02-22T14:14:27;14.30;99.90
44513;DHT22;30219;50.588;9.504;2023-02-22T14:17:14;14.30;99.90
44513;DHT22;30219;50.588;9.504;2023-02-22T14:19:38;14.40;99.90
44513;DHT22;30219;50.588;9.504;2023-02-22T14:22:04;14.50;99.90
44513;DHT22;30219;50.588;9.504;2023-02-22T14:24:41;14.50;99.90
44513;DHT22;30219;50.588;9.504;2023-02-22T14:27:07;14.30;99.90
44513;DHT22;30219;50.588;9.504;2023-02-22T14:29:32;14.30;99.90
44513;DHT22;30219;50.588;9.504;2023-02-22T14:32:00;14.30;99.90
44513;DHT22;30219;50.588;9.504;2023-02-22T14:34:39;14.40;99.90
44513;DHT22;30219;50.588;9.504;2023-02-22T14:37:27;14.40;99.90
44513;DHT22;30219;50.588;9.504;2023-02-22T14:39:52;14.20;99.90
44513;DHT22;30219;50.588;9.504;2023-02-22T14:42:32;14.20;99.90
44513;DHT22;30219;50.588;9.504;2023-02-22T14:53:06;14.10;99.90
44513;DHT22;30219;50.588;9.504;2023-02-22T14:55:56;14.10;99.90
44513;DHT22;30219;50.588;9.504;2023-02-22T15:01:26;13.80;99.90
44513;DHT22;30219;50.588;9.504;2023-02-22T15:03:55;13.90;99.90
44513;DHT22;30219;50.588;9.504;2023-02-22T15:06:26;13.90;99.90
44513;DHT22;30219;50.588;9.504;2023-02-22T15:11:38;13.90;99.90
44513;DHT22;30219;50.588;9.504;2023-02-22T15:14:23;14.00;99.90
44513;DHT22;30219;50.588;9.504;2023-02-22T15:16:59;14.00;99.90
44513;DHT22;30219;50.588;9.504;2023-02-22T15:19:26;13.80;99.90
44513;DHT22;30219;50.588;9.504;2023-02-22T15:21:53;13.60;99.90
44513;DHT22;30219;50.588;9.504;2023-02-22T15:24:28;13.70;99.90
44513;DHT22;30219;50.588;9.504;2023-02-22T15:26:54;13.70;99.90
44513;DHT22;30219;50.588;9.504;2023-02-22T15:29:37;13.70;99.90
44513;DHT22;30219;50.588;9.504;2023-02-22T15:32:17;13.70;99.90
44513;DHT22;30219;50.588;9.504;2023-02-22T15:34:42;13.70;99.90
44513;DHT22;30219;50.588;9.504;2023-02-22T15:37:13;13.70;99.90
44513;DHT22;30219;50.588;9.504;2023-02-22T15:39:43;13.70;99.90
44513;DHT22;30219;50.588;9.504;2023-02-22T15:42:16;13.70;99.90
44513;DHT22;30219;50.588;9.504;2023-02-22T15:44:46;13.70;99.90
44513;DHT22;30219;50.588;9.504;2023-02-22T15:47:15;13.70;99.90
44513;DHT22;30219;50.588;9.504;2023-02-22T15:49:41;13.70;99.90
44513;DHT22;30219;50.588;9.504;2023-02-22T15:52:13;13.70;99.90
44513;DHT22;30219;50.588;9.504;2023-02-22T15:54:50;13.80;99.90
44513;DHT22;30219;50.588;9.504;2023-02-22T15:57:17;13.70;99.90
44513;DHT22;30219;50.588;9.504;2023-02-22T15:59:51;13.60;99.90
44513;DHT22;30219;50.588;9.504;2023-02-22T16:04:58;13.30;99.90
44513;DHT22;30219;50.588;9.504;2023-02-22T16:07:24;13.10;99.90
44513;DHT22;30219;50.588;9.504;2023-02-22T16:09:50;12.90;99.90
44513;DHT22;30219;50.588;9.504;2023-02-22T16:14:44;12.90;99.90
44513;DHT22;30219;50.588;9.504;2023-02-22T16:19:58;12.70;99.90
44513;DHT22;30219;50.588;9.504;2023-02-22T16:24:53;12.60;99.90
44513;DHT22;30219;50.588;9.504;2023-02-22T16:27:20;12.40;99.90
44513;DHT22;30219;50.588;9.504;2023-02-22T16:30:16;12.20;99.90
44513;DHT22;30219;50.588;9.504;2023-02-22T16:32:32;12.10;99.90
44513;DHT22;30219;50.588;9.504;2023-02-22T16:34:57;11.90;99.90
44513;DHT22;30219;50.588;9.504;2023-02-22T16:37:23;11.90;99.90
44513;DHT22;30219;50.588;9.504;2023-02-22T16:39:48;11.80;99.90
44513;DHT22;30219;50.588;9.504;2023-02-22T16:42:17;11.80;99.90
44513;DHT22;30219;50.588;9.504;2023-02-22T16:44:51;11.70;99.90
44513;DHT22;30219;50.588;9.504;2023-02-22T16:47:17;11.70;99.90
44513;DHT22;30219;50.588;9.504;2023-02-22T16:49:43;11.70;99.90
44513;DHT22;30219;50.588;9.504;2023-02-22T16:52:08;11.60;99.90
44513;DHT22;30219;50.588;9.504;2023-02-22T16:54:38;11.40;99.90
44513;DHT22;30219;50.588;9.504;2023-02-22T16:57:05;10.80;99.90
44513;DHT22;30219;50.588;9.504;2023-02-22T16:59:32;10.50;99.90
44513;DHT22;30219;50.588;9.504;2023-02-22T17:02:00;10.30;99.90
44513;DHT22;30219;50.588;9.504;2023-02-22T17:04:25;10.00;99.90
44513;DHT22;30219;50.588;9.504;2023-02-22T17:06:52;9.80;99.90
44513;DHT22;30219;50.588;9.504;2023-02-22T17:09:18;9.70;99.90
44513;DHT22;30219;50.588;9.504;2023-02-22T17:11:48;9.80;99.90
44513;DHT22;30219;50.588;9.504;2023-02-22T17:14:18;9.70;99.90
44513;DHT22;30219;50.588;9.504;2023-02-22T17:16:47;9.40;99.90
44513;DHT22;30219;50.588;9.504;2023-02-22T17:19:17;9.30;99.90
44513;DHT22;30219;50.588;9.504;2023-02-22T17:21:42;9.30;99.90
44513;DHT22;30219;50.588;9.504;2023-02-22T17:24:10;9.30;99.90
44513;DHT22;30219;50.588;9.504;2023-02-22T17:26:36;9.30;99.90
44513;DHT22;30219;50.588;9.504;2023-02-22T17:29:01;9.30;99.90
44513;DHT22;30219;50.588;9.504;2023-02-22T17:31:27;9.30;99.90
44513;DHT22;30219;50.588;9.504;2023-02-22T17:33:54;9.30;99.90
44513;DHT22;30219;50.588;9.504;2023-02-22T17:36:20;9.20;99.90
44513;DHT22;30219;50.588;9.504;2023-02-22T17:38:46;9.10;99.90
44513;DHT22;30219;50.588;9.504;2023-02-22T17:41:11;9.00;99.90
44513;DHT22;30219;50.588;9.504;2023-02-22T17:43:37;9.10;99.90
44513;DHT22;30219;50.588;9.504;2023-02-22T17:46:06;9.20;99.90
44513;DHT22;30219;50.588;9.504;2023-02-22T17:48:34;9.10;99.90
44513;DHT22;30219;50.588;9.504;2023-02-22T17:51:03;9.00;99.90
44513;DHT22;30219;50.588;9.504;2023-02-22T17:53:29;8.90;99.90